createdAt,value
2022-09-10T00:01:30.412Z,89.47
2022-09-10T00:03:59.269Z,89.33
2022-09-10T00:06:28.056Z,89.37
2022-09-10T00:08:57.954Z,89.60
2022-09-10T00:11:29.633Z,89.75
2022-09-10T00:14:01.837Z,89.62
2022-09-10T00:16:31.134Z,89.78
2022-09-10T00:19:01.086Z,89.77
2022-09-10T00:21:29.915Z,89.85
2022-09-10T00:23:58.087Z,89.93
2022-09-10T00:26:28.484Z,89.98
2022-09-10T00:29:01.168Z,89.90
2022-09-10T00:31:30.575Z,89.90
2022-09-10T00:34:00.097Z,89.79
2022-09-10T00:36:35.792Z,89.80
2022-09-10T00:39:08.381Z,89.99
2022-09-10T00:41:39.244Z,89.82
2022-09-10T00:44:43.648Z,89.73
2022-09-10T00:47:23.379Z,89.92
2022-09-10T00:50:13.699Z,90.12
2022-09-10T00:52:42.654Z,90.22
2022-09-10T00:55:12.498Z,90.13
2022-09-10T00:57:42.698Z,90.25
2022-09-10T01:00:13.549Z,90.27
2022-09-10T01:02:43.264Z,90.32
2022-09-10T01:05:11.756Z,90.40
2022-09-10T01:07:40.994Z,90.39
2022-09-10T01:10:14.017Z,90.32
2022-09-10T01:12:47.671Z,90.49
2022-09-10T01:15:42.841Z,90.72
2022-09-10T01:18:30.117Z,90.75
2022-09-10T01:21:14.500Z,90.68
2022-09-10T01:24:14.164Z,90.78
2022-09-10T01:27:03.773Z,90.84
2022-09-10T01:29:41.071Z,90.83
2022-09-10T01:32:08.658Z,90.90
2022-09-10T01:34:56.294Z,90.88
2022-09-10T01:37:29.580Z,90.92
2022-09-10T01:39:59.494Z,91.02
2022-09-10T01:42:29.202Z,91.14
2022-09-10T01:44:58.201Z,91.01
2022-09-10T01:47:59.219Z,91.06
2022-09-10T01:50:57.217Z,91.11
2022-09-10T01:53:50.981Z,91.27
2022-09-10T01:56:41.176Z,91.33
2022-09-10T01:59:25.149Z,91.26
2022-09-10T02:02:08.962Z,91.34
2022-09-10T02:04:37.933Z,91.31
2022-09-10T02:07:07.451Z,91.33
2022-09-10T02:09:35.621Z,91.39
2022-09-10T02:12:03.627Z,91.44
2022-09-10T02:14:55.113Z,91.57
2022-09-10T02:17:33.493Z,91.76
2022-09-10T02:20:02.784Z,91.72
2022-09-10T02:22:33.554Z,91.75
2022-09-10T02:25:01.142Z,91.65
2022-09-10T02:27:30.025Z,91.50
2022-09-10T02:29:57.977Z,91.43
2022-09-10T02:32:26.415Z,91.53
2022-09-10T02:34:54.077Z,91.65
2022-09-10T02:37:21.699Z,91.70
2022-09-10T02:39:49.377Z,91.78
2022-09-10T02:42:17.954Z,91.72
2022-09-10T02:44:47.631Z,91.83
2022-09-10T02:47:15.290Z,91.82
2022-09-10T02:49:42.971Z,91.84
2022-09-10T02:52:12.360Z,91.92
2022-09-10T02:54:40.142Z,91.95
2022-09-10T02:57:08.189Z,91.86
2022-09-10T02:59:37.622Z,91.92
2022-09-10T03:02:05.301Z,92.02
2022-09-10T03:04:33.004Z,91.97
2022-09-10T03:07:00.695Z,92.05
2022-09-10T03:09:28.914Z,91.95
2022-09-10T03:11:56.706Z,92.02
2022-09-10T03:14:25.717Z,91.99
2022-09-10T03:16:53.368Z,92.15
2022-09-10T03:19:21.351Z,92.11
2022-09-10T03:21:48.936Z,92.13
2022-09-10T03:24:16.624Z,92.13
2022-09-10T03:26:46.220Z,92.10
2022-09-10T03:29:15.628Z,92.09
2022-09-10T03:31:46.243Z,92.34
2022-09-10T03:34:15.858Z,92.16
2022-09-10T03:36:47.284Z,92.28
2022-09-10T03:39:16.162Z,92.29
2022-09-10T03:41:45.363Z,92.30
2022-09-10T03:44:15.011Z,92.33
2022-09-10T03:46:42.920Z,92.33
2022-09-10T03:49:11.930Z,92.44
2022-09-10T03:51:39.580Z,92.41
2022-09-10T03:54:08.826Z,92.42
2022-09-10T03:56:36.472Z,92.42
2022-09-10T03:59:04.113Z,92.42
2022-09-10T04:01:32.020Z,92.55
2022-09-10T04:04:00.224Z,92.48
2022-09-10T04:06:32.220Z,92.40
2022-09-10T04:09:01.211Z,92.33
2022-09-10T04:11:29.691Z,92.49
2022-09-10T04:13:58.455Z,92.60
2022-09-10T04:16:27.747Z,92.61
2022-09-10T04:18:55.764Z,92.64
2022-09-10T04:21:24.546Z,92.63
2022-09-10T04:23:56.409Z,92.62
2022-09-10T04:26:24.080Z,92.63
2022-09-10T04:28:52.539Z,92.70
2022-09-10T04:31:20.798Z,92.73
2022-09-10T04:33:49.394Z,92.76
2022-09-10T04:36:20.542Z,92.70
2022-09-10T04:38:48.347Z,92.69
2022-09-10T04:41:19.447Z,92.83
2022-09-10T04:43:48.156Z,92.87
2022-09-10T04:46:17.545Z,92.91
2022-09-10T04:48:46.969Z,92.91
2022-09-10T04:51:18.588Z,92.93
2022-09-10T04:53:48.831Z,93.03
2022-09-10T04:56:17.013Z,92.94
2022-09-10T04:58:45.287Z,92.93
2022-09-10T05:01:14.734Z,92.89
2022-09-10T05:03:44.862Z,93.01
2022-09-10T05:06:13.526Z,92.98
2022-09-10T05:08:41.666Z,92.87
2022-09-10T05:11:11.493Z,92.96
2022-09-10T05:13:39.425Z,93.09
2022-09-10T05:16:07.891Z,93.08
2022-09-10T05:18:35.881Z,92.98
2022-09-10T05:21:05.280Z,92.93
2022-09-10T05:23:34.832Z,93.15
2022-09-10T05:26:02.918Z,93.21
2022-09-10T05:28:31.315Z,93.21
2022-09-10T05:30:59.611Z,93.14
2022-09-10T05:33:29.219Z,93.11
2022-09-10T05:35:57.111Z,93.15
2022-09-10T05:38:24.856Z,93.33
2022-09-10T05:40:53.662Z,93.29
2022-09-10T05:43:22.552Z,93.30
2022-09-10T05:45:52.178Z,93.29
2022-09-10T05:48:21.138Z,93.28
2022-09-10T05:50:51.502Z,93.28
2022-09-10T05:53:19.162Z,93.36
2022-09-10T05:55:46.780Z,93.50
2022-09-10T05:58:14.561Z,93.66
2022-09-10T06:00:46.718Z,93.47
2022-09-10T06:03:14.757Z,93.44
2022-09-10T06:05:53.209Z,93.56
2022-09-10T06:08:25.382Z,93.52
2022-09-10T06:11:00.699Z,93.59
2022-09-10T06:13:34.296Z,93.65
2022-09-10T06:16:02.973Z,93.64
2022-09-10T06:18:31.896Z,93.60
2022-09-10T06:21:17.462Z,93.69
2022-09-10T06:23:47.682Z,93.66
2022-09-10T06:26:18.449Z,93.87
2022-09-10T06:28:47.615Z,93.75
2022-09-10T06:31:20.132Z,93.70
2022-09-10T06:33:50.669Z,93.55
2022-09-10T06:36:21.357Z,93.51
2022-09-10T06:38:53.313Z,93.51
2022-09-10T06:41:21.354Z,93.50
2022-09-10T06:43:54.349Z,93.31
2022-09-10T06:49:31.336Z,93.52
2022-09-10T06:51:59.151Z,93.50
2022-09-10T06:54:27.318Z,93.48
2022-09-10T06:56:58.311Z,93.51
2022-09-10T06:59:26.437Z,93.46
2022-09-10T07:01:55.379Z,93.46
2022-09-10T07:04:23.064Z,93.37
2022-09-10T07:06:51.460Z,93.51
2022-09-10T07:09:19.622Z,93.47
2022-09-10T07:11:54.646Z,93.44
2022-09-10T07:14:23.760Z,93.37
2022-09-10T07:16:53.365Z,93.27
2022-09-10T07:19:23.175Z,93.31
2022-09-10T07:21:51.137Z,93.39
2022-09-10T07:24:20.089Z,93.25
2022-09-10T07:27:00.829Z,93.11
2022-09-10T07:29:31.140Z,92.96
2022-09-10T07:31:59.939Z,93.01
2022-09-10T07:34:27.847Z,92.99
2022-09-10T07:36:56.685Z,93.03
2022-09-10T07:39:26.028Z,93.00
2022-09-10T07:41:54.883Z,92.98
2022-09-10T07:44:27.056Z,92.88
2022-09-10T07:46:56.200Z,92.69
2022-09-10T07:49:23.877Z,92.58
2022-09-10T07:51:59.177Z,92.66
2022-09-10T07:54:29.597Z,92.60
2022-09-10T07:56:58.143Z,92.42
2022-09-10T07:59:27.096Z,92.44
2022-09-10T08:02:00.083Z,92.40
2022-09-10T08:04:36.416Z,92.36
2022-09-10T08:07:05.750Z,92.27
2022-09-10T08:09:34.598Z,92.36
2022-09-10T08:12:02.829Z,92.30
2022-09-10T08:14:31.639Z,92.24
2022-09-10T08:17:01.756Z,92.16
2022-09-10T08:19:30.031Z,92.17
2022-09-10T08:21:57.665Z,91.97
2022-09-10T08:24:29.298Z,91.79
2022-09-10T08:26:56.873Z,92.01
2022-09-10T08:29:24.519Z,92.12
2022-09-10T08:31:52.105Z,92.12
2022-09-10T08:34:26.254Z,92.04
2022-09-10T08:37:00.275Z,92.08
2022-09-10T08:39:31.091Z,92.03
2022-09-10T08:42:15.237Z,92.08
2022-09-10T08:45:04.916Z,91.91
2022-09-10T08:47:42.642Z,92.09
2022-09-10T08:50:27.132Z,91.94
2022-09-10T08:53:17.557Z,92.02
2022-09-10T08:55:48.992Z,92.02
2022-09-10T08:58:23.192Z,92.02
2022-09-10T09:00:57.635Z,92.03
2022-09-10T09:03:37.941Z,91.95
2022-09-10T09:06:12.952Z,91.99
2022-09-10T09:08:48.256Z,91.94
2022-09-10T09:11:48.585Z,91.92
2022-09-10T09:14:33.595Z,92.05
2022-09-10T09:17:27.500Z,92.13
2022-09-10T09:19:55.479Z,92.13
2022-09-10T09:22:45.409Z,92.23
2022-09-10T09:25:23.600Z,92.01
2022-09-10T09:27:55.360Z,92.14
2022-09-10T09:30:31.999Z,92.17
2022-09-10T09:33:12.504Z,92.08
2022-09-10T09:36:03.007Z,92.22
2022-09-10T09:38:37.428Z,91.90
2022-09-10T09:41:17.811Z,91.83
2022-09-10T09:43:51.351Z,91.98
2022-09-10T09:46:21.088Z,92.07
2022-09-10T09:48:55.664Z,92.11
2022-09-10T09:51:26.059Z,92.08
2022-09-10T09:54:34.609Z,91.93
2022-09-10T09:56:54.653Z,92.09
2022-09-10T09:59:28.423Z,92.05
2022-09-10T10:02:16.690Z,92.06
2022-09-10T10:05:09.843Z,91.91
2022-09-10T10:07:37.784Z,91.95
2022-09-10T10:10:07.374Z,91.95
2022-09-10T10:12:41.334Z,92.13
2022-09-10T10:15:36.655Z,92.02
2022-09-10T10:18:23.129Z,91.98
2022-09-10T10:21:10.362Z,91.80
2022-09-10T10:23:38.471Z,91.87
2022-09-10T10:26:22.053Z,91.87
2022-09-10T10:29:06.783Z,91.80
2022-09-10T10:31:37.464Z,91.63
2022-09-10T10:34:28.289Z,91.84
2022-09-10T10:37:01.834Z,91.88
2022-09-10T10:39:51.445Z,91.88
2022-09-10T10:42:51.097Z,91.86
2022-09-10T10:45:36.964Z,91.84
2022-09-10T10:48:12.278Z,91.79
2022-09-10T10:51:04.962Z,91.74
2022-09-10T10:54:03.211Z,91.99
2022-09-10T10:56:42.557Z,91.82
2022-09-10T10:59:26.739Z,91.66
2022-09-10T11:02:16.323Z,91.75
2022-09-10T11:04:48.767Z,91.89
2022-09-10T11:07:31.564Z,91.60
2022-09-10T11:10:29.984Z,91.53
2022-09-10T11:13:19.720Z,91.78
2022-09-10T11:15:59.401Z,91.83
2022-09-10T11:18:35.150Z,91.83
2022-09-10T11:21:22.157Z,91.75
2022-09-10T11:24:01.831Z,91.59
2022-09-10T11:26:43.376Z,91.46
2022-09-10T11:29:43.027Z,91.38
2022-09-10T11:32:30.141Z,91.65
2022-09-10T11:35:40.126Z,91.75
2022-09-10T11:38:40.174Z,91.73
2022-09-10T11:41:18.386Z,91.70
2022-09-10T11:44:17.992Z,91.51
2022-09-10T11:47:21.845Z,91.34
2022-09-10T11:50:07.474Z,91.50
2022-09-10T11:52:35.095Z,91.41
2022-09-10T11:55:04.977Z,91.46
2022-09-10T11:57:58.791Z,91.47
2022-09-10T12:00:34.280Z,91.46
2022-09-10T12:03:20.657Z,91.33
2022-09-10T12:06:04.301Z,91.38
2022-09-10T12:08:51.742Z,91.37
2022-09-10T12:11:51.587Z,91.34
2022-09-10T12:14:21.593Z,91.32
2022-09-10T12:16:54.415Z,91.33
2022-09-10T12:19:32.564Z,91.34
2022-09-10T12:22:07.873Z,91.25
2022-09-10T12:24:39.288Z,91.18
2022-09-10T12:27:07.172Z,91.24
2022-09-10T12:29:36.771Z,91.54
2022-09-10T12:32:20.315Z,91.35
2022-09-10T12:35:23.876Z,91.38
2022-09-10T12:38:27.376Z,91.40
2022-09-10T12:40:56.293Z,91.41
2022-09-10T12:43:40.139Z,91.36
2022-09-10T12:46:12.427Z,91.27
2022-09-10T12:48:46.223Z,91.43
2022-09-10T12:51:16.743Z,91.49
2022-09-10T12:53:58.740Z,91.33
2022-09-10T12:56:42.293Z,91.25
2022-09-10T12:59:25.842Z,91.37
2022-09-10T13:01:54.774Z,91.25
2022-09-10T13:04:39.527Z,91.24
2022-09-10T13:07:25.326Z,91.37
2022-09-10T13:10:05.060Z,91.33
2022-09-10T13:12:35.710Z,91.25
2022-09-10T13:15:04.961Z,91.27
2022-09-10T13:17:38.923Z,91.13
2022-09-10T13:20:26.434Z,91.18
2022-09-10T13:23:04.180Z,91.13
2022-09-10T13:25:43.519Z,91.24
2022-09-10T13:28:29.966Z,91.19
2022-09-10T13:31:17.041Z,91.44
2022-09-10T13:33:52.026Z,91.44
2022-09-10T13:36:41.900Z,91.45
2022-09-10T13:39:40.521Z,91.39
2022-09-10T13:42:42.261Z,91.51
2022-09-10T13:45:12.893Z,91.52
2022-09-10T13:47:53.468Z,91.47
2022-09-10T13:50:25.362Z,91.54
2022-09-10T13:52:57.558Z,91.54
2022-09-10T13:55:30.867Z,91.30
2022-09-10T13:58:11.874Z,91.17
2022-09-10T14:00:52.093Z,91.28
2022-09-10T14:03:25.093Z,91.47
2022-09-10T14:06:04.253Z,91.50
2022-09-10T14:08:49.392Z,91.40
2022-09-10T14:11:26.810Z,91.49
2022-09-10T14:14:04.494Z,91.58
2022-09-10T14:16:38.696Z,91.70
2022-09-10T14:19:20.771Z,91.85
2022-09-10T14:21:50.220Z,92.05
2022-09-10T14:24:40.205Z,92.13
2022-09-10T14:27:26.804Z,91.99
2022-09-10T14:29:56.643Z,92.14
2022-09-10T14:32:40.745Z,92.15
2022-09-10T14:35:42.987Z,92.13
2022-09-10T14:38:34.549Z,92.04
2022-09-10T14:41:17.055Z,91.90
2022-09-10T14:43:45.528Z,91.98
2022-09-10T14:46:46.363Z,92.14
2022-09-10T14:49:16.081Z,92.09
2022-09-10T14:51:44.100Z,92.03
2022-09-10T14:54:13.042Z,92.00
2022-09-10T14:56:46.460Z,92.06
2022-09-10T14:59:30.386Z,92.18
2022-09-10T15:02:00.863Z,92.12
2022-09-10T15:04:32.990Z,92.08
2022-09-10T15:07:02.609Z,92.15
2022-09-10T15:09:31.279Z,92.09
2022-09-10T15:12:15.351Z,92.16
2022-09-10T15:14:43.357Z,92.37
2022-09-10T15:17:14.644Z,92.34
2022-09-10T15:19:42.252Z,92.32
2022-09-10T15:22:27.473Z,92.38
2022-09-10T15:25:09.679Z,92.61
2022-09-10T15:27:38.412Z,92.43
2022-09-10T15:30:07.124Z,92.40
2022-09-10T15:32:35.010Z,92.25
2022-09-10T15:35:04.311Z,92.41
2022-09-10T15:37:33.124Z,92.42
2022-09-10T15:40:01.124Z,92.43
2022-09-10T15:42:30.555Z,92.45
2022-09-10T15:44:58.145Z,92.36
2022-09-10T15:47:26.921Z,92.43
2022-09-10T15:49:54.586Z,92.33
2022-09-10T15:52:22.165Z,92.42
2022-09-10T15:54:49.773Z,92.31
2022-09-10T15:57:17.372Z,92.54
2022-09-10T15:59:44.965Z,92.62
2022-09-10T16:02:15.754Z,92.42
2022-09-10T16:04:43.425Z,92.50
2022-09-10T16:07:11.498Z,92.68
2022-09-10T16:09:39.355Z,92.72
2022-09-10T16:12:07.144Z,92.76
2022-09-10T16:14:34.843Z,92.85
2022-09-10T16:17:10.232Z,92.79
2022-09-10T16:19:38.207Z,92.84
2022-09-10T16:22:06.086Z,92.91
2022-09-10T16:24:34.340Z,92.72
2022-09-10T16:27:01.996Z,92.96
2022-09-10T16:29:29.642Z,92.90
2022-09-10T16:31:57.309Z,92.90
2022-09-10T16:34:25.074Z,92.75
2022-09-10T16:36:53.048Z,92.76
2022-09-10T16:39:20.749Z,92.77
2022-09-10T16:41:49.638Z,92.78
2022-09-10T16:44:19.721Z,92.75
2022-09-10T16:46:47.811Z,92.87
2022-09-10T16:49:18.333Z,92.91
2022-09-10T16:51:49.318Z,92.97
2022-09-10T16:54:19.960Z,92.80
2022-09-10T16:56:48.701Z,93.01
2022-09-10T16:59:22.320Z,93.02
2022-09-10T17:01:51.921Z,93.16
2022-09-10T17:04:28.247Z,93.00
2022-09-10T17:06:57.988Z,93.06
2022-09-10T17:09:26.199Z,93.15
2022-09-10T17:11:54.250Z,93.13
2022-09-10T17:14:22.155Z,93.03
2022-09-10T17:16:49.982Z,93.13
2022-09-10T17:19:21.201Z,93.07
2022-09-10T17:21:51.573Z,93.17
2022-09-10T17:24:22.472Z,93.20
2022-09-10T17:26:51.639Z,93.28
2022-09-10T17:29:22.242Z,93.25
2022-09-10T17:31:55.332Z,93.28
2022-09-10T17:34:24.530Z,93.31
2022-09-10T17:36:52.535Z,93.26
2022-09-10T17:39:20.198Z,93.22
2022-09-10T17:41:48.389Z,93.28
2022-09-10T17:44:16.556Z,93.40
2022-09-10T17:46:45.067Z,93.34
2022-09-10T17:49:14.042Z,93.35
2022-09-10T17:51:42.475Z,93.38
2022-09-10T17:54:10.561Z,93.39
2022-09-10T17:56:38.251Z,93.54
2022-09-10T17:59:06.129Z,93.50
2022-09-10T18:01:38.562Z,93.57
2022-09-10T18:04:08.695Z,93.51
2022-09-10T18:06:36.454Z,93.63
2022-09-10T18:09:05.562Z,93.61
2022-09-10T18:11:37.129Z,93.63
2022-09-10T18:14:04.987Z,93.69
2022-09-10T18:16:35.099Z,93.78
2022-09-10T18:19:12.970Z,93.68
2022-09-10T18:21:43.645Z,93.78
2022-09-10T18:24:12.948Z,93.79
2022-09-10T18:26:43.475Z,93.85
2022-09-10T18:29:14.373Z,93.97
2022-09-10T18:31:45.101Z,93.81
2022-09-10T18:34:22.200Z,93.94
2022-09-10T18:36:55.287Z,93.99
2022-09-10T18:39:24.904Z,93.94
2022-09-10T18:41:54.716Z,93.97
2022-09-10T18:44:25.707Z,94.06
2022-09-10T18:46:54.148Z,94.07
2022-09-10T18:49:24.298Z,94.10
2022-09-10T18:51:54.120Z,94.02
2022-09-10T18:54:23.145Z,94.10
2022-09-10T18:56:50.801Z,94.10
2022-09-10T18:59:20.440Z,94.19
2022-09-10T19:01:49.965Z,94.19
2022-09-10T19:04:21.671Z,94.25
2022-09-10T19:06:50.095Z,94.26
2022-09-10T19:09:23.883Z,94.30
2022-09-10T19:11:54.087Z,94.45
2022-09-10T19:14:26.211Z,94.49
2022-09-10T19:16:55.055Z,94.57
2022-09-10T19:19:25.888Z,94.63
2022-09-10T19:21:59.445Z,94.74
2022-09-10T19:24:43.988Z,94.77
2022-09-10T19:27:14.987Z,94.91
2022-09-10T19:29:43.091Z,94.98
2022-09-10T19:32:11.543Z,95.02
2022-09-10T19:34:39.377Z,95.00
2022-09-10T19:37:07.117Z,94.99
2022-09-10T19:39:34.850Z,94.96
2022-09-10T19:42:02.701Z,95.10
2022-09-10T19:44:30.328Z,95.21
2022-09-10T19:46:58.639Z,95.07
2022-09-10T19:49:26.522Z,95.13
2022-09-10T19:51:54.172Z,95.11
2022-09-10T19:54:22.681Z,95.27
2022-09-10T19:56:50.287Z,95.13
2022-09-10T19:59:17.883Z,95.23
2022-09-10T20:01:46.064Z,95.34
2022-09-10T20:04:14.938Z,95.32
2022-09-10T20:06:43.413Z,95.48
2022-09-10T20:09:11.499Z,95.45
2022-09-10T20:11:39.184Z,95.46
2022-09-10T20:14:11.247Z,95.47
2022-09-10T20:16:42.484Z,95.54
2022-09-10T20:19:13.089Z,95.71
2022-09-10T20:21:42.089Z,95.67
2022-09-10T20:24:10.727Z,95.60
2022-09-10T20:26:41.003Z,95.71
2022-09-10T20:29:14.134Z,95.78
2022-09-10T20:31:43.178Z,95.96
2022-09-10T20:34:13.752Z,95.88
2022-09-10T20:36:45.161Z,95.89
2022-09-10T20:39:15.272Z,95.96
2022-09-10T20:41:44.248Z,95.90
2022-09-10T20:44:14.575Z,95.96
2022-09-10T20:46:43.420Z,95.97
2022-09-10T20:49:13.617Z,96.02
2022-09-10T20:51:41.935Z,96.15
2022-09-10T20:54:15.559Z,96.14
2022-09-10T20:56:43.939Z,96.29
2022-09-10T20:59:15.415Z,96.22
2022-09-10T21:01:46.115Z,96.25
2022-09-10T21:04:14.692Z,96.31
2022-09-10T21:06:42.752Z,96.38
2022-09-10T21:09:11.774Z,96.41
2022-09-10T21:11:39.484Z,96.36
2022-09-10T21:14:08.141Z,96.23
2022-09-10T21:16:38.671Z,96.45
2022-09-10T21:19:10.450Z,96.34
2022-09-10T21:21:39.526Z,96.39
2022-09-10T21:24:11.805Z,96.35
2022-09-10T21:26:41.799Z,96.39
2022-09-10T21:29:18.172Z,96.44
2022-09-10T21:31:46.476Z,96.58
2022-09-10T21:34:14.730Z,96.68
2022-09-10T21:36:43.533Z,96.67
2022-09-10T21:39:16.628Z,96.48
2022-09-10T21:41:47.115Z,96.50
2022-09-10T21:44:18.370Z,96.52
2022-09-10T21:46:47.595Z,96.59
2022-09-10T21:49:16.289Z,96.56
2022-09-10T21:51:45.046Z,96.50
2022-09-10T21:54:17.008Z,96.54
2022-09-10T21:56:45.084Z,96.73
2022-09-10T21:59:14.381Z,96.69
2022-09-10T22:01:44.729Z,96.70
2022-09-10T22:04:18.808Z,96.76
2022-09-10T22:06:50.029Z,96.70
2022-09-10T22:09:17.708Z,96.69
2022-09-10T22:11:50.023Z,96.88
2022-09-10T22:14:21.344Z,96.94
2022-09-10T22:16:49.926Z,97.03
2022-09-10T22:19:22.305Z,97.19
2022-09-10T22:21:51.104Z,97.15
2022-09-10T22:24:18.963Z,97.11
2022-09-10T22:26:47.224Z,97.16
2022-09-10T22:29:18.024Z,97.20
2022-09-10T22:31:46.630Z,97.25
2022-09-10T22:34:17.000Z,97.31
2022-09-10T22:36:46.461Z,97.38
2022-09-10T22:39:17.719Z,97.33
2022-09-10T22:41:46.439Z,97.36
2022-09-10T22:44:14.777Z,97.40
2022-09-10T22:46:42.968Z,97.39
2022-09-10T22:49:10.898Z,97.45
2022-09-10T22:51:41.060Z,97.44
2022-09-10T22:54:10.595Z,97.60
2022-09-10T22:56:39.698Z,97.56
2022-09-10T22:59:11.960Z,97.49
2022-09-10T23:01:40.355Z,97.66
2022-09-10T23:04:09.393Z,97.85
2022-09-10T23:06:38.596Z,97.84
2022-09-10T23:09:12.137Z,97.93
2022-09-10T23:11:40.317Z,97.69
2022-09-10T23:14:12.962Z,97.80
2022-09-10T23:16:42.841Z,97.65
2022-09-10T23:19:30.278Z,97.73
2022-09-10T23:21:58.158Z,97.67
2022-09-10T23:24:26.449Z,97.62
2022-09-10T23:26:54.789Z,97.73
2022-09-10T23:29:23.298Z,97.75
2022-09-10T23:31:54.583Z,97.69
2022-09-10T23:34:23.259Z,97.81
2022-09-10T23:36:52.209Z,97.75
2022-09-10T23:39:22.621Z,97.70
2022-09-10T23:41:53.488Z,97.73
2022-09-10T23:44:22.611Z,97.77
2022-09-10T23:46:50.634Z,97.87
2022-09-10T23:49:18.201Z,97.88
2022-09-10T23:51:45.800Z,97.81
2022-09-10T23:54:13.511Z,97.92
2022-09-10T23:56:41.133Z,97.84
2022-09-10T23:59:09.531Z,97.82
